Time;durP1;ratioP1;P1;durP2;ratioP2;P2;SDS_P1;SDS_P2;PMS_P1;PMS_P2;Temp;Humidity;BMP_temperature;BMP_pressure;BME280_temperature;BME280_humidity;BME280_pressure;Samples;Min_cycle;Max_cycle;Signal;HPM_P1;HPM_P2
2024/01/01 00:01:56;;;;;;;7.45;5.40;;;;;;;;;;5072993;28;20032;-38
2024/01/01 00:04:24;;;;;;;7.75;6.00;;;;;;;;;;5073013;28;20036;-37
2024/01/01 00:06:51;;;;;;;7.47;5.32;;;;;;;;;;5072806;28;20044;-39
2024/01/01 00:09:18;;;;;;;6.55;4.35;;;;;;;;;;5072925;28;20020;-38
2024/01/01 00:11:45;;;;;;;5.60;4.20;;;;;;;;;;5072546;28;20060;-39
2024/01/01 00:14:12;;;;;;;6.03;4.72;;;;;;;;;;5072694;28;20075;-39
2024/01/01 00:16:39;;;;;;;5.38;4.47;;;;;;;;;;5072560;28;20497;-40
2024/01/01 00:19:06;;;;;;;6.05;4.93;;;;;;;;;;5072678;28;20033;-38
2024/01/01 00:21:33;;;;;;;5.88;4.32;;;;;;;;;;5072632;28;20029;-39
2024/01/01 00:24:00;;;;;;;5.80;4.43;;;;;;;;;;5072540;28;20439;-40
2024/01/01 00:26:27;;;;;;;5.40;4.60;;;;;;;;;;5072416;28;20486;-38
2024/01/01 00:28:54;;;;;;;5.25;4.60;;;;;;;;;;5072460;28;20028;-39
2024/01/01 00:31:21;;;;;;;5.57;4.65;;;;;;;;;;5071501;28;20029;-37
2024/01/01 00:33:48;;;;;;;6.32;4.57;;;;;;;;;;5072335;28;20033;-38
2024/01/01 00:36:15;;;;;;;7.20;4.70;;;;;;;;;;5072242;28;20027;-40
2024/01/01 00:38:41;;;;;;;6.93;4.82;;;;;;;;;;5072300;28;20119;-37
2024/01/01 00:41:13;;;;;;;7.50;4.60;;;;;;;;;;5072298;28;20028;-40
2024/01/01 00:43:40;;;;;;;6.15;4.47;;;;;;;;;;5072290;28;20060;-40
2024/01/01 00:46:07;;;;;;;5.70;4.28;;;;;;;;;;5072044;28;20021;-40
2024/01/01 00:48:34;;;;;;;6.50;4.53;;;;;;;;;;5072109;28;20051;-39
2024/01/01 00:51:01;;;;;;;5.72;4.60;;;;;;;;;;5072125;28;20111;-40
2024/01/01 00:53:28;;;;;;;6.88;4.80;;;;;;;;;;5071999;28;20055;-39
2024/01/01 00:55:55;;;;;;;4.85;4.35;;;;;;;;;;5072023;28;20024;-37
2024/01/01 00:58:22;;;;;;;6.20;4.75;;;;;;;;;;5071823;28;20031;-41
2024/01/01 01:00:49;;;;;;;6.47;5.00;;;;;;;;;;5072025;28;20024;-40
2024/01/01 01:03:16;;;;;;;6.32;4.55;;;;;;;;;;5071945;28;20024;-37
2024/01/01 01:05:43;;;;;;;6.90;4.80;;;;;;;;;;5071915;28;20498;-40
2024/01/01 01:08:09;;;;;;;5.43;4.50;;;;;;;;;;5071751;28;20025;-39
2024/01/01 01:10:36;;;;;;;6.00;4.30;;;;;;;;;;5071883;28;20025;-40
2024/01/01 01:13:04;;;;;;;6.45;4.35;;;;;;;;;;5071521;28;20124;-39
2024/01/01 01:15:31;;;;;;;5.65;4.90;;;;;;;;;;5071683;28;20056;-40
2024/01/01 01:17:58;;;;;;;5.47;4.40;;;;;;;;;;5071671;28;20039;-38
2024/01/01 01:20:25;;;;;;;6.15;4.70;;;;;;;;;;5071646;28;20081;-40
2024/01/01 01:22:52;;;;;;;5.97;4.70;;;;;;;;;;5071731;28;20067;-40
2024/01/01 01:25:19;;;;;;;5.63;4.40;;;;;;;;;;5071684;28;20029;-39
2024/01/01 01:27:46;;;;;;;6.55;4.60;;;;;;;;;;5071627;28;20052;-37
2024/01/01 01:30:13;;;;;;;6.03;4.40;;;;;;;;;;5071579;28;20100;-40
2024/01/01 01:32:40;;;;;;;5.47;4.63;;;;;;;;;;5071628;28;20028;-37
2024/01/01 01:35:07;;;;;;;6.53;4.65;;;;;;;;;;5071498;28;20347;-39
2024/01/01 01:37:37;;;;;;;5.10;4.22;;;;;;;;;;5071474;28;20021;-38
2024/01/01 01:40:05;;;;;;;7.00;4.97;;;;;;;;;;5071607;28;20119;-39
2024/01/01 01:42:32;;;;;;;6.68;4.30;;;;;;;;;;5073646;28;20035;-37
2024/01/01 01:44:58;;;;;;;7.40;4.60;;;;;;;;;;5074362;28;20101;-38
2024/01/01 01:47:26;;;;;;;5.75;4.00;;;;;;;;;;5075497;28;20081;-39
2024/01/01 01:49:53;;;;;;;6.18;4.15;;;;;;;;;;5075572;28;20389;-38
2024/01/01 01:52:21;;;;;;;5.32;4.15;;;;;;;;;;5075561;28;20093;-40
2024/01/01 01:54:50;;;;;;;5.22;4.28;;;;;;;;;;5075361;28;20025;-37
2024/01/01 01:57:17;;;;;;;6.10;4.60;;;;;;;;;;5075319;28;20024;-37
2024/01/01 01:59:44;;;;;;;7.55;4.55;;;;;;;;;;5075385;28;20029;-38
2024/01/01 02:02:12;;;;;;;5.40;4.15;;;;;;;;;;5075357;28;20040;-38
2024/01/01 02:04:39;;;;;;;4.90;3.88;;;;;;;;;;5075254;28;20074;-40
2024/01/01 02:07:09;;;;;;;5.30;4.00;;;;;;;;;;5075035;28;20025;-36
2024/01/01 02:09:36;;;;;;;6.15;4.10;;;;;;;;;;5075144;28;20044;-40
2024/01/01 02:12:03;;;;;;;6.00;4.30;;;;;;;;;;5074897;28;20497;-39
2024/01/01 02:14:30;;;;;;;6.05;4.85;;;;;;;;;;5074963;28;20060;-39
2024/01/01 02:16:57;;;;;;;5.10;3.75;;;;;;;;;;5074903;28;20036;-39
2024/01/01 02:19:26;;;;;;;5.90;4.00;;;;;;;;;;5075231;28;20500;-40
2024/01/01 02:21:54;;;;;;;6.32;4.22;;;;;;;;;;5074883;28;20029;-39
2024/01/01 02:24:21;;;;;;;8.02;4.40;;;;;;;;;;5074860;28;20036;-38
2024/01/01 02:26:48;;;;;;;5.90;4.47;;;;;;;;;;5074761;28;20033;-40
2024/01/01 02:29:16;;;;;;;5.75;4.05;;;;;;;;;;5074728;28;20040;-38
2024/01/01 02:31:43;;;;;;;5.97;4.07;;;;;;;;;;5074768;28;20472;-39
2024/01/01 02:34:10;;;;;;;5.38;4.00;;;;;;;;;;5074713;28;20067;-38
2024/01/01 02:36:38;;;;;;;5.18;4.05;;;;;;;;;;5074836;28;20029;-39
2024/01/01 02:39:06;;;;;;;5.30;4.32;;;;;;;;;;5074537;28;20039;-40
2024/01/01 02:41:39;;;;;;;5.00;4.28;;;;;;;;;;5074526;28;20107;-40
2024/01/01 02:44:07;;;;;;;5.53;3.90;;;;;;;;;;5074849;28;20064;-38
2024/01/01 02:46:34;;;;;;;5.65;3.58;;;;;;;;;;5074347;28;20049;-39
2024/01/01 02:49:01;;;;;;;5.45;3.80;;;;;;;;;;5074396;28;20081;-38
2024/01/01 02:51:28;;;;;;;5.68;4.00;;;;;;;;;;5074373;28;20028;-39
2024/01/01 02:53:54;;;;;;;4.90;3.90;;;;;;;;;;5073168;28;20399;-40
2024/01/01 02:56:25;;;;;;;4.68;3.58;;;;;;;;;;5074220;28;20041;-36
2024/01/01 02:58:53;;;;;;;4.18;3.38;;;;;;;;;;5074262;28;20024;-36
2024/01/01 03:01:20;;;;;;;4.45;3.65;;;;;;;;;;5074099;28;20025;-37
2024/01/01 03:03:47;;;;;;;5.75;4.10;;;;;;;;;;5074099;28;20024;-36
2024/01/01 03:06:18;;;;;;;5.03;3.75;;;;;;;;;;5074038;28;20580;-40
2024/01/01 03:08:45;;;;;;;4.55;3.55;;;;;;;;;;5074114;28;20039;-40
2024/01/01 03:11:12;;;;;;;5.05;3.60;;;;;;;;;;5074036;28;20158;-39
2024/01/01 03:13:39;;;;;;;4.72;3.60;;;;;;;;;;5073707;28;20060;-36
2024/01/01 03:16:07;;;;;;;7.25;4.00;;;;;;;;;;5073915;28;20032;-40
2024/01/01 03:18:34;;;;;;;5.72;3.75;;;;;;;;;;5073929;28;20024;-39
2024/01/01 03:21:01;;;;;;;5.18;3.47;;;;;;;;;;5073887;28;20111;-39
2024/01/01 03:23:28;;;;;;;5.18;3.85;;;;;;;;;;5073722;28;20024;-38
2024/01/01 03:25:54;;;;;;;4.90;3.60;;;;;;;;;;5073689;28;20103;-42
2024/01/01 03:28:21;;;;;;;5.22;3.15;;;;;;;;;;5073738;28;20036;-39
2024/01/01 03:30:48;;;;;;;4.57;3.55;;;;;;;;;;5073713;28;20531;-40
2024/01/01 03:33:15;;;;;;;6.10;3.63;;;;;;;;;;5073694;28;20451;-37
2024/01/01 03:35:42;;;;;;;4.22;3.47;;;;;;;;;;5073514;28;20042;-39
2024/01/01 03:38:09;;;;;;;4.28;3.20;;;;;;;;;;5073445;28;20032;-40
2024/01/01 03:40:36;;;;;;;4.93;3.55;;;;;;;;;;5073442;28;20024;-38
2024/01/01 03:43:03;;;;;;;5.45;3.75;;;;;;;;;;5073400;28;20032;-35
2024/01/01 03:45:30;;;;;;;5.22;3.40;;;;;;;;;;5073390;28;20115;-37
2024/01/01 03:47:57;;;;;;;4.88;3.70;;;;;;;;;;5073292;28;20064;-38
2024/01/01 03:50:24;;;;;;;4.07;3.20;;;;;;;;;;5073279;28;20103;-38
2024/01/01 03:52:51;;;;;;;6.30;3.58;;;;;;;;;;5073229;28;20512;-39
2024/01/01 03:55:18;;;;;;;3.85;3.38;;;;;;;;;;5073109;28;20048;-39
2024/01/01 03:57:45;;;;;;;4.10;3.15;;;;;;;;;;5073019;28;20493;-38
2024/01/01 04:00:12;;;;;;;5.15;3.20;;;;;;;;;;5073054;28;20471;-40
2024/01/01 04:02:40;;;;;;;5.63;3.50;;;;;;;;;;5072993;28;20058;-39
2024/01/01 04:05:08;;;;;;;4.20;2.90;;;;;;;;;;5072763;28;20390;-38
2024/01/01 04:07:35;;;;;;;5.55;3.35;;;;;;;;;;5072842;28;20541;-40
2024/01/01 04:10:05;;;;;;;4.15;3.15;;;;;;;;;;5073105;28;20399;-38
2024/01/01 04:12:35;;;;;;;5.13;3.30;;;;;;;;;;5072642;28;20147;-38
2024/01/01 04:15:03;;;;;;;4.18;2.75;;;;;;;;;;5072740;28;20037;-39
2024/01/01 04:17:31;;;;;;;4.78;2.88;;;;;;;;;;5072667;28;20471;-39
2024/01/01 04:20:01;;;;;;;4.35;3.13;;;;;;;;;;5072914;28;20402;-39
2024/01/01 04:22:28;;;;;;;4.68;3.20;;;;;;;;;;5072669;28;20060;-37
2024/01/01 04:24:55;;;;;;;4.43;2.70;;;;;;;;;;5072604;28;20021;-40
2024/01/01 04:27:22;;;;;;;3.70;2.88;;;;;;;;;;5072453;28;20044;-39
2024/01/01 04:29:49;;;;;;;4.32;3.05;;;;;;;;;;5072460;28;20080;-40
2024/01/01 04:32:16;;;;;;;3.17;2.53;;;;;;;;;;5072398;28;20032;-38
2024/01/01 04:34:43;;;;;;;4.93;3.00;;;;;;;;;;5072357;28;20032;-40
2024/01/01 04:37:09;;;;;;;3.30;2.95;;;;;;;;;;5072314;28;20434;-40
2024/01/01 04:39:36;;;;;;;3.60;2.80;;;;;;;;;;5072335;28;20638;-39
2024/01/01 04:42:03;;;;;;;3.35;2.78;;;;;;;;;;5072207;28;20095;-37
2024/01/01 04:44:30;;;;;;;4.72;3.10;;;;;;;;;;5072209;28;20033;-40
2024/01/01 04:46:57;;;;;;;4.90;3.03;;;;;;;;;;5072086;28;20514;-40
2024/01/01 04:49:24;;;;;;;4.47;2.97;;;;;;;;;;5072152;28;20024;-39
2024/01/01 04:51:51;;;;;;;3.45;2.63;;;;;;;;;;5072131;28;20032;-40
2024/01/01 04:54:18;;;;;;;5.68;2.58;;;;;;;;;;5071962;28;20486;-37
2024/01/01 04:56:45;;;;;;;4.45;2.88;;;;;;;;;;5072205;28;20040;-40
2024/01/01 04:59:13;;;;;;;4.00;2.97;;;;;;;;;;5072000;28;20504;-37
2024/01/01 05:01:39;;;;;;;3.70;2.67;;;;;;;;;;5072022;28;20028;-39
2024/01/01 05:04:06;;;;;;;4.90;3.25;;;;;;;;;;5072228;28;20450;-40
2024/01/01 05:06:33;;;;;;;4.53;2.85;;;;;;;;;;5071776;28;20021;-40
2024/01/01 05:09:00;;;;;;;3.42;2.67;;;;;;;;;;5071983;28;20482;-39
2024/01/01 05:11:29;;;;;;;2.90;2.40;;;;;;;;;;5071933;28;20036;-40
2024/01/01 05:13:56;;;;;;;4.05;2.47;;;;;;;;;;5071547;28;20109;-40
2024/01/01 05:16:26;;;;;;;4.45;2.72;;;;;;;;;;5071017;28;20111;-39
2024/01/01 05:18:53;;;;;;;4.88;2.72;;;;;;;;;;5071729;28;20452;-40
2024/01/01 05:21:20;;;;;;;4.25;2.90;;;;;;;;;;5071759;28;20066;-40
2024/01/01 05:23:46;;;;;;;3.53;2.40;;;;;;;;;;5071746;28;20495;-39
2024/01/01 05:26:13;;;;;;;4.30;2.60;;;;;;;;;;5071571;28;20473;-37
2024/01/01 05:28:40;;;;;;;4.20;2.47;;;;;;;;;;5071628;28;20367;-40
2024/01/01 05:31:07;;;;;;;3.42;2.30;;;;;;;;;;5071662;28;20062;-39
2024/01/01 05:33:34;;;;;;;3.40;2.15;;;;;;;;;;5071538;28;20028;-39
2024/01/01 05:36:01;;;;;;;4.00;2.58;;;;;;;;;;5071552;28;20029;-40
2024/01/01 05:38:29;;;;;;;4.30;2.30;;;;;;;;;;5071596;28;20556;-40
2024/01/01 05:40:56;;;;;;;4.93;2.53;;;;;;;;;;5071487;28;20024;-38
2024/01/01 05:43:23;;;;;;;4.70;2.40;;;;;;;;;;5071535;28;20017;-39
2024/01/01 05:45:50;;;;;;;3.58;2.22;;;;;;;;;;5071436;28;20110;-39
2024/01/01 05:48:16;;;;;;;2.55;2.15;;;;;;;;;;5071505;28;20021;-39
2024/01/01 05:50:43;;;;;;;5.88;2.30;;;;;;;;;;5071482;28;20043;-36
2024/01/01 05:53:10;;;;;;;3.30;2.17;;;;;;;;;;5071443;28;20099;-37
2024/01/01 05:55:37;;;;;;;3.45;2.45;;;;;;;;;;5071252;28;20123;-38
2024/01/01 05:58:04;;;;;;;3.10;2.30;;;;;;;;;;5071435;28;20057;-39
2024/01/01 06:00:36;;;;;;;4.18;2.30;;;;;;;;;;5071400;28;20036;-33
2024/01/01 06:03:04;;;;;;;4.78;2.17;;;;;;;;;;5070716;28;20086;-40
2024/01/01 06:05:34;;;;;;;3.15;2.35;;;;;;;;;;5071229;28;20529;-39
2024/01/01 06:08:04;;;;;;;4.25;2.45;;;;;;;;;;5071364;28;20111;-38
2024/01/01 06:10:31;;;;;;;4.55;2.60;;;;;;;;;;5071471;28;20028;-38
2024/01/01 06:12:59;;;;;;;4.05;2.30;;;;;;;;;;5070947;28;20123;-38
2024/01/01 06:15:29;;;;;;;3.17;2.08;;;;;;;;;;5071091;28;20029;-39
2024/01/01 06:17:56;;;;;;;3.30;2.15;;;;;;;;;;5071208;28;20025;-40
2024/01/01 06:20:23;;;;;;;3.30;2.20;;;;;;;;;;5071187;28;20048;-35
2024/01/01 06:22:50;;;;;;;3.75;2.20;;;;;;;;;;5071204;28;20020;-39
2024/01/01 06:25:17;;;;;;;3.53;2.15;;;;;;;;;;5071034;28;20032;-38
2024/01/01 06:27:44;;;;;;;3.40;1.92;;;;;;;;;;5071757;28;20097;-36
2024/01/01 06:30:11;;;;;;;2.20;1.73;;;;;;;;;;5074821;28;20029;-39
2024/01/01 06:32:38;;;;;;;2.80;2.20;;;;;;;;;;5074772;28;20534;-38
2024/01/01 06:35:05;;;;;;;3.88;2.25;;;;;;;;;;5074655;28;20124;-40
2024/01/01 06:37:32;;;;;;;3.97;2.08;;;;;;;;;;5074757;28;20032;-40
2024/01/01 06:39:59;;;;;;;4.03;2.15;;;;;;;;;;5074633;28;20025;-38
2024/01/01 06:42:26;;;;;;;3.40;1.90;;;;;;;;;;5074598;28;20024;-41
2024/01/01 06:44:58;;;;;;;2.67;1.83;;;;;;;;;;5074528;28;20041;-39
2024/01/01 06:47:25;;;;;;;4.22;2.00;;;;;;;;;;5227319;22;20056;-32
2024/01/01 06:49:52;;;;;;;2.88;2.05;;;;;;;;;;5074245;28;20040;-32
2024/01/01 06:52:19;;;;;;;3.60;1.85;;;;;;;;;;5074299;28;20397;-32
2024/01/01 06:54:46;;;;;;;4.03;2.10;;;;;;;;;;5074176;28;20040;-32
2024/01/01 06:57:13;;;;;;;3.13;1.70;;;;;;;;;;5074301;28;20031;-32
2024/01/01 06:59:40;;;;;;;2.75;2.00;;;;;;;;;;5074602;28;20051;-32
2024/01/01 07:02:07;;;;;;;2.67;1.92;;;;;;;;;;5074235;28;20155;-32
2024/01/01 07:04:34;;;;;;;2.70;1.88;;;;;;;;;;5074059;28;20074;-32
2024/01/01 07:07:01;;;;;;;2.97;1.95;;;;;;;;;;5074066;28;20034;-32
2024/01/01 07:09:28;;;;;;;3.28;2.13;;;;;;;;;;5074012;28;20397;-32
2024/01/01 07:11:59;;;;;;;2.58;2.00;;;;;;;;;;5074103;28;20020;-32
2024/01/01 07:14:26;;;;;;;3.05;1.85;;;;;;;;;;5074007;28;20532;-32
2024/01/01 07:16:54;;;;;;;3.22;1.98;;;;;;;;;;5073818;28;20039;-32
2024/01/01 07:19:21;;;;;;;2.05;1.77;;;;;;;;;;5073958;28;20032;-32
2024/01/01 07:21:48;;;;;;;3.30;1.67;;;;;;;;;;5073852;28;20032;-32
2024/01/01 07:24:15;;;;;;;3.65;1.83;;;;;;;;;;5073991;28;20028;-32
2024/01/01 07:26:42;;;;;;;4.20;1.58;;;;;;;;;;5073595;28;20135;-32
2024/01/01 07:29:09;;;;;;;3.65;1.90;;;;;;;;;;5073733;28;20020;-32
2024/01/01 07:31:36;;;;;;;5.63;1.80;;;;;;;;;;5073742;28;20036;-32
2024/01/01 07:34:03;;;;;;;2.13;1.63;;;;;;;;;;5073480;28;20040;-32
2024/01/01 07:36:30;;;;;;;3.38;1.83;;;;;;;;;;5073469;28;20033;-32
2024/01/01 07:38:57;;;;;;;3.42;1.85;;;;;;;;;;5073441;28;20082;-32
2024/01/01 07:41:24;;;;;;;2.60;1.60;;;;;;;;;;5073188;28;20028;-32
2024/01/01 07:43:51;;;;;;;3.72;1.90;;;;;;;;;;5073485;28;20031;-32
2024/01/01 07:46:18;;;;;;;3.05;2.08;;;;;;;;;;5073326;28;20032;-32
2024/01/01 07:48:45;;;;;;;4.25;1.75;;;;;;;;;;5073395;28;20052;-32
2024/01/01 07:51:11;;;;;;;3.75;1.95;;;;;;;;;;5073329;28;20090;-32
2024/01/01 07:53:38;;;;;;;2.88;2.00;;;;;;;;;;5073242;28;20032;-32
2024/01/01 07:56:05;;;;;;;3.53;1.83;;;;;;;;;;5073421;28;20040;-32
2024/01/01 07:58:32;;;;;;;4.15;1.70;;;;;;;;;;5073096;28;20079;-32
2024/01/01 08:00:59;;;;;;;4.95;1.73;;;;;;;;;;5073050;28;20028;-32
2024/01/01 08:03:26;;;;;;;3.05;1.83;;;;;;;;;;5073156;28;20028;-32
2024/01/01 08:05:53;;;;;;;2.53;1.70;;;;;;;;;;5072900;28;20043;-32
2024/01/01 08:08:20;;;;;;;3.90;1.85;;;;;;;;;;5073170;28;20074;-32
2024/01/01 08:10:47;;;;;;;3.47;1.52;;;;;;;;;;5073146;28;20439;-32
2024/01/01 08:13:14;;;;;;;4.13;1.75;;;;;;;;;;5072954;28;20104;-32
2024/01/01 08:15:41;;;;;;;2.35;1.50;;;;;;;;;;5072466;28;20508;-32
2024/01/01 08:18:08;;;;;;;2.63;1.48;;;;;;;;;;5072760;28;20036;-32
2024/01/01 08:20:35;;;;;;;2.63;1.73;;;;;;;;;;5072846;28;20025;-32
2024/01/01 08:23:02;;;;;;;3.13;1.70;;;;;;;;;;5072694;28;20379;-32
2024/01/01 08:25:32;;;;;;;3.30;1.67;;;;;;;;;;5072842;28;20044;-32
2024/01/01 08:27:59;;;;;;;2.83;1.70;;;;;;;;;;5072558;28;20024;-32
2024/01/01 08:30:26;;;;;;;4.20;1.50;;;;;;;;;;5072478;28;20028;-32
2024/01/01 08:32:53;;;;;;;2.75;1.40;;;;;;;;;;5072507;28;20482;-32
2024/01/01 08:35:20;;;;;;;3.38;1.92;;;;;;;;;;5072364;28;20045;-32
2024/01/01 08:37:48;;;;;;;2.90;1.45;;;;;;;;;;5054887;28;20090;-32
2024/01/01 08:40:15;;;;;;;3.00;1.77;;;;;;;;;;5072292;28;20374;-32
2024/01/01 08:42:42;;;;;;;4.35;1.40;;;;;;;;;;5072420;28;20028;-32
2024/01/01 08:45:09;;;;;;;2.65;1.63;;;;;;;;;;5072309;28;20520;-32
2024/01/01 08:47:36;;;;;;;3.95;1.52;;;;;;;;;;5071971;28;20044;-32
2024/01/01 08:50:03;;;;;;;3.03;1.50;;;;;;;;;;5072184;28;20025;-32
2024/01/01 08:52:30;;;;;;;1.92;1.30;;;;;;;;;;5071402;28;20055;-32
2024/01/01 08:54:57;;;;;;;2.22;1.40;;;;;;;;;;5072180;28;20032;-32
2024/01/01 08:57:26;;;;;;;2.95;1.52;;;;;;;;;;5072113;28;20108;-32
2024/01/01 08:59:53;;;;;;;3.42;1.50;;;;;;;;;;5071970;28;20067;-32
2024/01/01 09:02:20;;;;;;;5.15;1.73;;;;;;;;;;5072090;28;20063;-32
2024/01/01 09:04:47;;;;;;;3.20;1.60;;;;;;;;;;5072103;28;20030;-32
2024/01/01 09:07:14;;;;;;;2.45;1.33;;;;;;;;;;5071893;28;20020;-32
2024/01/01 09:09:41;;;;;;;3.58;1.27;;;;;;;;;;5071972;28;20103;-32
2024/01/01 09:12:08;;;;;;;2.83;1.33;;;;;;;;;;5072077;28;20144;-32
2024/01/01 09:14:36;;;;;;;2.15;1.35;;;;;;;;;;5071992;28;20090;-32
2024/01/01 09:17:07;;;;;;;3.05;1.33;;;;;;;;;;5053705;28;20448;-32
2024/01/01 09:19:37;;;;;;;2.05;1.30;;;;;;;;;;5071618;28;20037;-32
2024/01/01 09:22:04;;;;;;;2.45;1.02;;;;;;;;;;5071670;28;20032;-32
2024/01/01 09:24:31;;;;;;;1.55;0.95;;;;;;;;;;5071705;28;20020;-32
2024/01/01 09:26:59;;;;;;;3.45;1.38;;;;;;;;;;5071664;28;20036;-32
2024/01/01 09:29:25;;;;;;;2.45;1.45;;;;;;;;;;5071550;28;20058;-32
2024/01/01 09:31:52;;;;;;;2.30;1.30;;;;;;;;;;5071631;28;20032;-32
2024/01/01 09:34:19;;;;;;;2.90;1.17;;;;;;;;;;5071583;28;20051;-32
2024/01/01 09:36:46;;;;;;;2.15;1.42;;;;;;;;;;5071421;28;20063;-32
2024/01/01 09:39:14;;;;;;;2.65;1.20;;;;;;;;;;5071628;28;20450;-32
2024/01/01 09:41:40;;;;;;;2.03;1.17;;;;;;;;;;5071413;28;20103;-32
2024/01/01 09:44:11;;;;;;;2.97;1.45;;;;;;;;;;5071577;28;20025;-32
2024/01/01 09:46:38;;;;;;;2.75;1.40;;;;;;;;;;5071508;28;20123;-32
2024/01/01 09:49:05;;;;;;;6.15;1.25;;;;;;;;;;5053405;28;20520;-32
2024/01/01 09:51:37;;;;;;;1.95;1.17;;;;;;;;;;5071407;28;20021;-32
2024/01/01 09:54:07;;;;;;;2.88;1.30;;;;;;;;;;5071304;28;20460;-32
2024/01/01 09:56:34;;;;;;;2.83;1.20;;;;;;;;;;5071420;28;20028;-32
2024/01/01 09:59:01;;;;;;;1.98;1.20;;;;;;;;;;5071410;28;20052;-32
2024/01/01 10:01:30;;;;;;;3.00;1.25;;;;;;;;;;5071375;28;20545;-32
2024/01/01 10:04:03;;;;;;;2.28;1.20;;;;;;;;;;5073999;28;20567;-32
2024/01/01 10:06:30;;;;;;;2.75;1.20;;;;;;;;;;5075135;28;20032;-32
2024/01/01 10:09:13;;;;;;;2.72;1.40;;;;;;;;;;5075194;28;20035;-32
2024/01/01 10:11:44;;;;;;;1.65;1.08;;;;;;;;;;5075092;28;20036;-32
2024/01/01 10:14:11;;;;;;;1.85;0.98;;;;;;;;;;5074948;28;20072;-32
2024/01/01 10:16:39;;;;;;;2.05;1.20;;;;;;;;;;5075205;28;20514;-32
2024/01/01 10:19:07;;;;;;;3.58;1.08;;;;;;;;;;5074944;28;20056;-32
2024/01/01 10:21:35;;;;;;;3.38;1.10;;;;;;;;;;5074924;28;20033;-32
2024/01/01 10:24:21;;;;;;;1.92;1.20;;;;;;;;;;5074956;28;20048;-32
2024/01/01 10:26:48;;;;;;;3.25;1.35;;;;;;;;;;5074687;28;20479;-32
2024/01/01 10:29:18;;;;;;;3.90;1.30;;;;;;;;;;5074719;28;20410;-32
2024/01/01 10:31:47;;;;;;;3.13;1.13;;;;;;;;;;5074755;28;20029;-32
2024/01/01 10:34:14;;;;;;;2.78;1.17;;;;;;;;;;5074556;28;20482;-32
2024/01/01 10:36:42;;;;;;;2.88;0.88;;;;;;;;;;5074629;28;20374;-32
2024/01/01 10:39:10;;;;;;;2.03;1.20;;;;;;;;;;5074720;28;20032;-32
2024/01/01 10:41:37;;;;;;;2.10;1.00;;;;;;;;;;5074491;28;20020;-32
2024/01/01 10:44:09;;;;;;;2.55;1.10;;;;;;;;;;5074845;28;20032;-32
2024/01/01 10:46:46;;;;;;;2.33;1.08;;;;;;;;;;5074238;28;20072;-32
2024/01/01 10:49:22;;;;;;;1.90;1.25;;;;;;;;;;5074509;28;20028;-32
2024/01/01 10:51:55;;;;;;;1.88;1.02;;;;;;;;;;5074473;28;20754;-32
2024/01/01 10:54:35;;;;;;;4.55;1.13;;;;;;;;;;5074341;28;20037;-32
2024/01/01 10:57:10;;;;;;;2.00;1.17;;;;;;;;;;5074346;28;20099;-32
2024/01/01 10:59:43;;;;;;;1.50;0.85;;;;;;;;;;5074338;28;20078;-32
2024/01/01 11:02:10;;;;;;;2.78;1.02;;;;;;;;;;5074279;28;20091;-38
2024/01/01 11:04:37;;;;;;;2.38;0.95;;;;;;;;;;5074199;28;20036;-32
2024/01/01 11:07:04;;;;;;;2.75;1.25;;;;;;;;;;5074134;28;20049;-32
2024/01/01 11:09:32;;;;;;;4.03;1.00;;;;;;;;;;5074043;28;20033;-32
2024/01/01 11:12:04;;;;;;;4.25;1.20;;;;;;;;;;5073971;28;20482;-32
2024/01/01 11:14:31;;;;;;;3.70;1.20;;;;;;;;;;5072934;28;20078;-32
2024/01/01 11:17:00;;;;;;;2.80;1.23;;;;;;;;;;5074131;28;20044;-32
2024/01/01 11:19:47;;;;;;;2.15;1.30;;;;;;;;;;5074001;28;20028;-32
2024/01/01 11:22:20;;;;;;;2.38;1.13;;;;;;;;;;5074026;28;20047;-32
2024/01/01 11:24:50;;;;;;;3.17;1.13;;;;;;;;;;5073993;28;20446;-32
2024/01/01 11:27:36;;;;;;;3.28;1.23;;;;;;;;;;5073606;28;20028;-32
2024/01/01 11:30:05;;;;;;;3.60;1.25;;;;;;;;;;5073833;28;20024;-32
2024/01/01 11:32:32;;;;;;;2.25;1.20;;;;;;;;;;5073742;28;20047;-32
2024/01/01 11:35:12;;;;;;;2.50;1.00;;;;;;;;;;5073623;28;20044;-32
2024/01/01 11:37:40;;;;;;;2.75;1.10;;;;;;;;;;5073379;28;20094;-32
2024/01/01 11:40:09;;;;;;;1.85;0.90;;;;;;;;;;5073614;28;20056;-32
2024/01/01 11:42:36;;;;;;;2.35;1.33;;;;;;;;;;5073737;28;20115;-32
2024/01/01 11:45:10;;;;;;;2.45;1.13;;;;;;;;;;5073441;28;20031;-32
2024/01/01 11:47:38;;;;;;;3.80;1.30;;;;;;;;;;5073220;28;20513;-32
2024/01/01 11:50:05;;;;;;;3.63;1.50;;;;;;;;;;5073589;28;20063;-32
2024/01/01 11:52:40;;;;;;;3.45;1.30;;;;;;;;;;5073366;28;20029;-32
2024/01/01 11:55:07;;;;;;;3.72;1.33;;;;;;;;;;5072728;28;20445;-32
2024/01/01 11:57:39;;;;;;;3.22;1.13;;;;;;;;;;5073115;28;20028;-32
2024/01/01 12:00:06;;;;;;;2.20;0.93;;;;;;;;;;5073122;28;20444;-32
2024/01/01 12:02:33;;;;;;;2.15;1.00;;;;;;;;;;5073125;28;20490;-32
2024/01/01 12:05:00;;;;;;;4.75;1.20;;;;;;;;;;5073004;28;20039;-32
2024/01/01 12:07:28;;;;;;;2.83;1.00;;;;;;;;;;5072948;28;20056;-32
2024/01/01 12:10:10;;;;;;;3.47;1.38;;;;;;;;;;5073158;28;20035;-32
2024/01/01 12:12:39;;;;;;;3.08;1.10;;;;;;;;;;5072969;28;20035;-32
2024/01/01 12:15:22;;;;;;;3.53;1.02;;;;;;;;;;5069285;28;20055;-32
2024/01/01 12:17:54;;;;;;;3.25;1.20;;;;;;;;;;5072669;28;20108;-32
2024/01/01 12:20:24;;;;;;;3.75;1.10;;;;;;;;;;5072699;28;20032;-32
2024/01/01 12:22:53;;;;;;;3.08;1.20;;;;;;;;;;5072722;28;20516;-32
2024/01/01 12:25:21;;;;;;;3.78;1.10;;;;;;;;;;5072301;28;20115;-32
2024/01/01 12:28:07;;;;;;;2.15;1.00;;;;;;;;;;5072652;28;20095;-32
2024/01/01 12:30:35;;;;;;;3.63;1.17;;;;;;;;;;5072483;28;20395;-32
2024/01/01 12:33:02;;;;;;;3.22;1.17;;;;;;;;;;5072551;28;20494;-32
2024/01/01 12:35:29;;;;;;;3.17;0.85;;;;;;;;;;5072239;28;20510;-32
2024/01/01 12:37:56;;;;;;;3.30;1.20;;;;;;;;;;5072431;28;20032;-32
2024/01/01 12:40:28;;;;;;;2.22;1.10;;;;;;;;;;5072571;28;20382;-32
2024/01/01 12:42:55;;;;;;;2.30;1.10;;;;;;;;;;5072233;28;20071;-32
2024/01/01 12:45:22;;;;;;;2.63;1.23;;;;;;;;;;5072040;28;20408;-32
2024/01/01 12:47:49;;;;;;;2.38;1.00;;;;;;;;;;5072047;28;20135;-32
2024/01/01 12:50:16;;;;;;;2.60;1.10;;;;;;;;;;5072136;28;20505;-32
2024/01/01 12:52:43;;;;;;;3.05;1.05;;;;;;;;;;5072044;28;20490;-32
2024/01/01 12:55:10;;;;;;;3.13;1.20;;;;;;;;;;5071993;28;20040;-33
2024/01/01 12:57:38;;;;;;;2.85;1.05;;;;;;;;;;5071982;28;20024;-32
2024/01/01 13:00:06;;;;;;;2.13;0.90;;;;;;;;;;5071907;28;20033;-32
2024/01/01 13:02:36;;;;;;;2.20;0.98;;;;;;;;;;5071902;28;20541;-32
2024/01/01 13:05:04;;;;;;;2.63;0.90;;;;;;;;;;5072002;28;20036;-32
2024/01/01 13:07:31;;;;;;;2.35;1.10;;;;;;;;;;5071735;28;20086;-32
2024/01/01 13:09:57;;;;;;;3.08;1.10;;;;;;;;;;5071950;28;20074;-32
2024/01/01 13:12:25;;;;;;;5.15;1.20;;;;;;;;;;5071895;28;20536;-32
2024/01/01 13:14:52;;;;;;;2.70;1.25;;;;;;;;;;5071687;28;20036;-32
2024/01/01 13:17:19;;;;;;;3.63;1.30;;;;;;;;;;5071749;28;20551;-32
2024/01/01 13:19:46;;;;;;;4.10;1.13;;;;;;;;;;5071759;28;20024;-32
2024/01/01 13:22:13;;;;;;;3.00;0.90;;;;;;;;;;5071667;28;20379;-32
2024/01/01 13:24:40;;;;;;;2.35;0.90;;;;;;;;;;5071960;28;20041;-32
2024/01/01 13:27:15;;;;;;;2.25;0.90;;;;;;;;;;5071605;28;20773;-32
2024/01/01 13:29:42;;;;;;;2.08;0.93;;;;;;;;;;5071718;28;20033;-32
2024/01/01 13:32:09;;;;;;;2.92;0.95;;;;;;;;;;5071696;28;20032;-32
2024/01/01 13:34:36;;;;;;;3.58;1.13;;;;;;;;;;5071588;28;20044;-32
2024/01/01 13:37:02;;;;;;;3.88;1.10;;;;;;;;;;5071275;28;20025;-32
2024/01/01 13:39:31;;;;;;;2.55;1.10;;;;;;;;;;5071399;28;20527;-32
2024/01/01 13:41:59;;;;;;;2.03;0.95;;;;;;;;;;5071459;28;20028;-32
2024/01/01 13:44:26;;;;;;;2.78;1.13;;;;;;;;;;5071476;28;20478;-32
2024/01/01 13:46:53;;;;;;;3.92;1.00;;;;;;;;;;5053138;28;20059;-32
2024/01/01 13:49:20;;;;;;;3.38;1.13;;;;;;;;;;5071564;28;20505;-32
2024/01/01 13:51:47;;;;;;;3.00;1.15;;;;;;;;;;5071513;28;20024;-32
2024/01/01 13:54:14;;;;;;;2.65;0.90;;;;;;;;;;5071242;28;20039;-32
2024/01/01 13:56:41;;;;;;;2.42;1.00;;;;;;;;;;5071394;28;20043;-32
2024/01/01 13:59:08;;;;;;;2.35;1.10;;;;;;;;;;5071421;28;20505;-32
2024/01/01 14:01:37;;;;;;;3.67;0.98;;;;;;;;;;5071339;28;20059;-32
2024/01/01 14:04:05;;;;;;;1.65;0.98;;;;;;;;;;5071261;28;20020;-32
2024/01/01 14:06:32;;;;;;;1.92;1.08;;;;;;;;;;5071282;28;20082;-33
2024/01/01 14:08:59;;;;;;;3.58;0.90;;;;;;;;;;5071258;28;20040;-32
2024/01/01 14:11:25;;;;;;;2.33;1.05;;;;;;;;;;5071170;28;20466;-32
2024/01/01 14:13:53;;;;;;;2.55;1.10;;;;;;;;;;5071224;28;20032;-32
2024/01/01 14:16:20;;;;;;;3.78;1.10;;;;;;;;;;5071053;28;20103;-32
2024/01/01 14:18:48;;;;;;;1.77;0.80;;;;;;;;;;5071265;28;20021;-32
2024/01/01 14:21:15;;;;;;;4.63;1.13;;;;;;;;;;5071102;28;20064;-32
2024/01/01 14:23:42;;;;;;;3.40;1.02;;;;;;;;;;5071009;28;20398;-32
2024/01/01 14:26:08;;;;;;;2.85;1.02;;;;;;;;;;5071122;28;20795;-32
2024/01/01 14:28:35;;;;;;;3.55;1.10;;;;;;;;;;5071082;28;20082;-32
2024/01/01 14:31:02;;;;;;;2.90;0.90;;;;;;;;;;5071079;28;20035;-32
2024/01/01 14:33:31;;;;;;;1.45;0.80;;;;;;;;;;5070950;28;20068;-32
2024/01/01 14:35:58;;;;;;;1.98;0.80;;;;;;;;;;5070733;28;20405;-32
2024/01/01 14:38:28;;;;;;;3.65;1.00;;;;;;;;;;5070906;28;20508;-32
2024/01/01 14:40:55;;;;;;;2.65;1.10;;;;;;;;;;5070906;28;20047;-32
2024/01/01 14:43:22;;;;;;;2.83;1.10;;;;;;;;;;5070935;28;20024;-32
2024/01/01 14:45:49;;;;;;;3.65;1.17;;;;;;;;;;5070923;28;20803;-32
2024/01/01 14:48:20;;;;;;;2.25;1.08;;;;;;;;;;5070974;28;20089;-32